Sns 217 — FAC7489 — position and weather

sailwx.info

Track history (hours):
 
Tides and Currents Weather Stations Pressure Air Temp Water Temp Dewpoint Dewpoint Depression Visibility Wind Speed Wind Dir Waves Ship Positions

Sns 217

Last reported at 2017-Dec-07 12:32 UTC. Time now 2017-Dec-13 22:50 UTC.
Position N 46°26' W 001°41'.

Length 12 m; draft 1.3 m.

Type: SAR. MMSI: 227342260.

Date/timePositionNaut miles runAvg speedWind from/ knotsBaromVisibWave heightAir tempDewpointWater temp
2017-Dec-07 12:32N 46°26' W 001°41'0 0.2
2017-Dec-07 12:30N 46°26' W 001°41'612.0
2017-Dec-07 12:00N 46°30' W 001°48'0 0.5
2017-Dec-07 11:30N 46°30' W 001°48'2 4.2
2017-Dec-07 11:00N 46°28' W 001°46'2 4.2
2017-Dec-07 10:30N 46°27' W 001°43'  
2017-Dec-02 10:21N 46°26' W 001°41'3 8.2
2017-Dec-02 10:00N 46°24' W 001°38'3 4.8
2017-Dec-02 09:28N 46°24' W 001°34'1 1.2
2017-Dec-02 09:00N 46°24' W 001°35'  
Track history (hours):
 
Tides and Currents Weather Stations Pressure Air Temp Water Temp Dewpoint Dewpoint Depression Visibility Wind Speed Wind Dir Waves Ship Positions

Sns 217

Last reported at 2017-Dec-07 12:32 UTC. Time now 2017-Dec-13 22:50 UTC.
Position N 46°26' W 001°41'.

Length 12 m; draft 1.3 m.

Type: SAR. MMSI: 227342260.

Date/timePositionNaut miles runAvg speedWind from/ knotsBaromVisibWave heightAir tempDewpointWater temp
2017-Dec-07 12:32N 46°26' W 001°41'0 0.2
2017-Dec-07 12:30N 46°26' W 001°41'612.0
2017-Dec-07 12:00N 46°30' W 001°48'0 0.5
2017-Dec-07 11:30N 46°30' W 001°48'2 4.2
2017-Dec-07 11:00N 46°28' W 001°46'2 4.2
2017-Dec-07 10:30N 46°27' W 001°43'  
2017-Dec-02 10:21N 46°26' W 001°41'3 8.2
2017-Dec-02 10:00N 46°24' W 001°38'3 4.8
2017-Dec-02 09:28N 46°24' W 001°34'1 1.2
2017-Dec-02 09:00N 46°24' W 001°35'  

Dump ship's entire track history